createdAt,value
2022-11-01T00:01:23.131Z,75.30
2022-11-01T00:03:51.009Z,75.40
2022-11-01T00:06:20.369Z,75.70
2022-11-01T00:08:48.239Z,75.40
2022-11-01T00:11:17.888Z,75.60
2022-11-01T00:13:46.025Z,75.60
2022-11-01T00:16:14.402Z,75.30
2022-11-01T00:18:42.297Z,75.70
2022-11-01T00:21:10.632Z,75.60
2022-11-01T00:23:39.819Z,75.40
2022-11-01T00:26:07.838Z,75.40
2022-11-01T00:28:35.789Z,75.50
2022-11-01T00:31:06.544Z,75.10
2022-11-01T00:33:37.447Z,75.60
2022-11-01T00:36:05.283Z,75.80
2022-11-01T00:38:33.317Z,75.70
2022-11-01T00:41:04.494Z,76.00
2022-11-01T00:43:32.508Z,75.60
2022-11-01T00:46:00.848Z,76.00
2022-11-01T00:48:28.854Z,76.00
2022-11-01T00:50:56.828Z,76.20
2022-11-01T00:53:25.285Z,76.00
2022-11-01T00:55:53.008Z,75.70
2022-11-01T00:58:22.002Z,76.10
2022-11-01T01:00:49.770Z,76.20
2022-11-01T01:03:17.452Z,76.20
2022-11-01T01:05:45.490Z,75.70
2022-11-01T01:08:13.131Z,76.20
2022-11-01T01:10:40.806Z,76.00
2022-11-01T01:13:09.029Z,76.00
2022-11-01T01:15:38.542Z,76.10
2022-11-01T01:18:06.708Z,75.90
2022-11-01T01:20:34.500Z,75.60
2022-11-01T01:23:02.826Z,76.20
2022-11-01T01:25:30.638Z,76.30
2022-11-01T01:27:58.443Z,76.00
2022-11-01T01:30:26.172Z,76.30
2022-11-01T01:32:55.240Z,76.10
2022-11-01T01:35:23.288Z,76.00
2022-11-01T01:37:52.062Z,75.90
2022-11-01T01:40:20.681Z,76.00
2022-11-01T01:42:48.375Z,76.60
2022-11-01T01:45:33.018Z,76.10
2022-11-01T01:48:10.983Z,76.00
2022-11-01T01:50:41.517Z,75.90
2022-11-01T01:53:13.907Z,76.10
2022-11-01T01:55:44.013Z,76.20
2022-11-01T01:58:12.129Z,75.80
2022-11-01T02:00:40.339Z,75.90
2022-11-01T02:03:09.592Z,75.80
2022-11-01T02:05:40.584Z,75.90
2022-11-01T02:08:08.307Z,76.00
2022-11-01T02:10:36.346Z,75.90
2022-11-01T02:13:04.182Z,76.40
2022-11-01T02:15:41.006Z,76.00
2022-11-01T02:18:16.130Z,76.00
2022-11-01T02:21:01.406Z,75.90
2022-11-01T02:23:58.751Z,75.90
2022-11-01T02:26:55.643Z,75.60
2022-11-01T02:29:32.734Z,76.80
2022-11-01T02:32:08.123Z,75.90
2022-11-01T02:34:37.313Z,76.20
2022-11-01T02:37:10.211Z,76.20
2022-11-01T02:39:40.566Z,75.90
2022-11-01T02:42:11.429Z,75.80
2022-11-01T02:44:41.111Z,76.00
2022-11-01T02:47:12.742Z,75.80
2022-11-01T02:49:41.816Z,75.90
2022-11-01T02:52:11.243Z,75.80
2022-11-01T02:54:40.164Z,75.80
2022-11-01T02:57:18.966Z,75.70
2022-11-01T02:59:48.459Z,75.80
2022-11-01T03:02:19.766Z,75.90
2022-11-01T03:04:48.033Z,75.90
2022-11-01T03:07:16.255Z,75.70
2022-11-01T03:09:43.977Z,75.80
2022-11-01T03:12:15.928Z,75.50
2022-11-01T03:14:48.293Z,75.70
2022-11-01T03:17:21.152Z,75.50
2022-11-01T03:19:50.437Z,75.70
2022-11-01T03:22:19.473Z,75.80
2022-11-01T03:24:49.084Z,75.80
2022-11-01T03:27:19.233Z,75.50
2022-11-01T03:29:49.280Z,75.30
2022-11-01T03:32:18.734Z,75.20
2022-11-01T03:34:46.590Z,75.30
2022-11-01T03:37:14.379Z,75.30
2022-11-01T03:39:44.187Z,75.10
2022-11-01T03:42:14.642Z,75.20
2022-11-01T03:44:43.343Z,75.10
2022-11-01T03:47:11.335Z,74.80
2022-11-01T03:49:41.245Z,74.90
2022-11-01T03:52:09.286Z,75.00
2022-11-01T03:54:37.588Z,74.70
2022-11-01T03:57:05.805Z,74.70
2022-11-01T03:59:34.143Z,74.70
2022-11-01T04:02:02.227Z,74.70
2022-11-01T04:04:30.658Z,74.70
2022-11-01T04:06:59.968Z,74.60
2022-11-01T04:09:28.156Z,74.60
2022-11-01T04:11:55.970Z,74.40
2022-11-01T04:14:42.050Z,74.50
2022-11-01T04:17:27.909Z,74.30
2022-11-01T04:20:13.786Z,74.40
2022-11-01T04:22:43.070Z,74.30
2022-11-01T04:25:11.366Z,74.10
2022-11-01T04:27:39.340Z,74.30
2022-11-01T04:30:08.566Z,74.10
2022-11-01T04:32:36.786Z,74.10
2022-11-01T04:35:05.049Z,74.10
2022-11-01T04:37:32.894Z,74.00
2022-11-01T04:40:01.950Z,73.80
2022-11-01T04:42:29.800Z,73.80
2022-11-01T04:44:57.478Z,73.90
2022-11-01T04:47:25.383Z,73.80
2022-11-01T04:49:53.762Z,73.80
2022-11-01T04:52:21.751Z,73.60
2022-11-01T04:54:49.663Z,73.50
2022-11-01T04:57:24.809Z,73.60
2022-11-01T04:59:53.231Z,73.40
2022-11-01T05:02:22.039Z,73.60
2022-11-01T05:04:50.081Z,73.50
2022-11-01T05:07:18.423Z,73.40
2022-11-01T05:09:46.343Z,73.40
2022-11-01T05:12:14.618Z,73.40
2022-11-01T05:14:43.796Z,73.40
2022-11-01T05:17:12.296Z,73.40
2022-11-01T05:19:40.150Z,73.10
2022-11-01T05:22:08.077Z,73.10
2022-11-01T05:24:36.086Z,73.10
2022-11-01T05:27:04.136Z,73.20
2022-11-01T05:29:33.218Z,73.10
2022-11-01T05:32:03.365Z,72.90
2022-11-01T05:34:31.138Z,73.10
2022-11-01T05:36:59.305Z,73.00
2022-11-01T05:39:27.119Z,72.80
2022-11-01T05:41:58.259Z,72.70
2022-11-01T05:44:29.770Z,72.70
2022-11-01T05:46:58.206Z,72.70
2022-11-01T05:49:27.573Z,72.60
2022-11-01T05:51:55.491Z,72.50
2022-11-01T05:54:23.254Z,72.40
2022-11-01T05:56:51.233Z,72.40
2022-11-01T05:59:19.246Z,72.30
2022-11-01T06:01:47.298Z,72.10
2022-11-01T06:04:15.241Z,72.20
2022-11-01T06:06:44.639Z,72.50
2022-11-01T06:09:13.135Z,71.80
2022-11-01T06:11:41.943Z,71.90
2022-11-01T06:14:11.752Z,72.50
2022-11-01T06:16:39.692Z,71.80
2022-11-01T06:19:08.073Z,71.60
2022-11-01T06:21:36.085Z,71.50
2022-11-01T06:24:06.504Z,71.40
2022-11-01T06:26:34.467Z,71.30
2022-11-01T06:29:03.446Z,71.40
2022-11-01T06:31:31.666Z,71.40
2022-11-01T06:34:00.024Z,71.20
2022-11-01T06:36:27.982Z,71.20
2022-11-01T06:38:56.093Z,71.10
2022-11-01T06:41:25.205Z,71.10
2022-11-01T06:43:53.415Z,71.10
2022-11-01T06:46:21.918Z,70.70
2022-11-01T06:48:49.802Z,70.70
2022-11-01T06:51:17.565Z,70.70
2022-11-01T06:53:45.294Z,70.60
2022-11-01T06:56:13.787Z,70.60
2022-11-01T06:58:43.096Z,70.70
2022-11-01T07:01:11.431Z,70.40
2022-11-01T07:03:39.219Z,70.40
2022-11-01T07:06:07.641Z,70.40
2022-11-01T07:08:35.552Z,70.30
2022-11-01T07:11:03.733Z,70.40
2022-11-01T07:13:33.920Z,70.20
2022-11-01T07:16:04.517Z,70.10
2022-11-01T07:18:32.336Z,70.30
2022-11-01T07:21:02.906Z,70.10
2022-11-01T07:23:30.836Z,70.70
2022-11-01T07:25:59.237Z,69.90
2022-11-01T07:28:27.219Z,69.80
2022-11-01T07:30:55.478Z,69.80
2022-11-01T07:33:24.774Z,69.90
2022-11-01T07:35:53.141Z,69.80
2022-11-01T07:38:21.193Z,69.80
2022-11-01T07:40:50.796Z,69.70
2022-11-01T07:43:19.258Z,69.90
2022-11-01T07:45:47.116Z,69.70
2022-11-01T07:48:15.825Z,69.80
2022-11-01T07:50:45.225Z,69.70
2022-11-01T07:53:14.105Z,69.50
2022-11-01T07:55:41.997Z,69.90
2022-11-01T07:58:10.432Z,69.60
2022-11-01T08:00:38.529Z,69.50
2022-11-01T08:03:07.246Z,69.50
2022-11-01T08:05:35.534Z,69.60
2022-11-01T08:08:06.229Z,69.30
2022-11-01T08:10:34.689Z,69.40
2022-11-01T08:13:04.293Z,69.40
2022-11-01T08:15:32.703Z,69.20
2022-11-01T08:18:01.245Z,68.50
2022-11-01T08:20:30.006Z,69.10
2022-11-01T08:22:58.669Z,69.00
2022-11-01T08:25:28.570Z,68.90
2022-11-01T08:27:56.862Z,68.70
2022-11-01T08:30:25.271Z,68.60
2022-11-01T08:32:59.364Z,68.60
2022-11-01T08:35:27.512Z,68.50
2022-11-01T08:37:55.536Z,68.30
2022-11-01T08:40:23.504Z,68.40
2022-11-01T08:42:53.124Z,68.40
2022-11-01T08:45:21.463Z,68.20
2022-11-01T08:47:49.318Z,68.40
2022-11-01T08:50:18.469Z,68.60
2022-11-01T08:52:46.342Z,68.60
2022-11-01T08:55:14.425Z,68.60
2022-11-01T08:57:42.206Z,68.70
2022-11-01T09:00:13.948Z,68.40
2022-11-01T09:02:41.804Z,68.10
2022-11-01T09:05:10.100Z,67.60
2022-11-01T09:07:38.283Z,67.30
2022-11-01T09:10:07.518Z,67.10
2022-11-01T09:12:35.453Z,66.50
2022-11-01T09:15:03.774Z,66.00
2022-11-01T09:17:33.218Z,65.70
2022-11-01T09:20:01.227Z,65.20
2022-11-01T09:22:29.570Z,64.70
2022-11-01T09:24:58.680Z,64.20
2022-11-01T09:27:26.811Z,63.70
2022-11-01T09:29:54.715Z,63.30
2022-11-01T09:32:22.841Z,62.90
2022-11-01T09:34:52.280Z,62.50
2022-11-01T09:37:20.045Z,62.10
2022-11-01T09:39:47.796Z,61.70
2022-11-01T09:42:19.930Z,61.40
2022-11-01T09:44:48.257Z,61.10
2022-11-01T09:47:17.246Z,60.90
2022-11-01T09:49:47.225Z,60.40
2022-11-01T09:52:19.682Z,59.90
2022-11-01T09:54:47.814Z,59.60
2022-11-01T09:57:19.292Z,59.30
2022-11-01T09:59:49.457Z,58.80
2022-11-01T10:02:30.916Z,58.70
2022-11-01T10:05:07.364Z,58.40
2022-11-01T10:07:41.171Z,58.20
2022-11-01T10:10:18.010Z,57.80
2022-11-01T10:12:51.856Z,57.40
2022-11-01T10:15:28.224Z,57.40
2022-11-01T10:17:56.338Z,57.00
2022-11-01T10:20:25.415Z,56.50
2022-11-01T10:22:54.405Z,56.10
2022-11-01T10:25:23.857Z,55.80
2022-11-01T10:27:54.917Z,55.30
2022-11-01T10:30:23.359Z,55.00
2022-11-01T10:32:52.957Z,54.70
2022-11-01T10:35:22.273Z,54.10
2022-11-01T10:38:04.349Z,53.80
2022-11-01T10:40:44.173Z,53.40
2022-11-01T10:43:14.706Z,52.80
2022-11-01T10:45:47.409Z,52.60
2022-11-01T10:48:22.078Z,52.30
2022-11-01T10:50:50.782Z,52.00
2022-11-01T10:53:18.768Z,52.20
2022-11-01T10:55:49.282Z,51.50
2022-11-01T10:58:20.230Z,50.70
2022-11-01T11:00:48.608Z,50.40
2022-11-01T11:03:19.396Z,49.90
2022-11-01T11:05:48.083Z,49.60
2022-11-01T11:08:16.805Z,49.30
2022-11-01T11:10:44.921Z,48.80
2022-11-01T11:13:14.957Z,48.30
2022-11-01T11:15:45.025Z,47.60
2022-11-01T11:18:18.636Z,47.00
2022-11-01T11:20:46.956Z,45.60
2022-11-01T11:23:14.615Z,45.20
2022-11-01T11:25:44.949Z,45.60
2022-11-01T11:28:21.752Z,46.10
2022-11-01T11:30:49.466Z,46.30
2022-11-01T11:33:17.620Z,46.60
2022-11-01T11:35:59.120Z,46.90
2022-11-01T11:38:43.249Z,47.10
2022-11-01T11:41:12.805Z,47.90
2022-11-01T11:43:42.587Z,47.10
2022-11-01T11:46:15.479Z,46.80
2022-11-01T11:48:50.625Z,47.00
2022-11-01T11:51:18.516Z,48.10
2022-11-01T11:53:46.444Z,47.20
2022-11-01T11:56:14.291Z,46.70
2022-11-01T11:58:44.994Z,46.40
2022-11-01T12:01:14.172Z,45.60
2022-11-01T12:03:46.612Z,44.60
2022-11-01T12:06:17.897Z,45.00
2022-11-01T12:08:47.236Z,44.70
2022-11-01T12:11:15.669Z,44.10
2022-11-01T12:13:46.301Z,44.00
2022-11-01T12:16:20.425Z,44.30
2022-11-01T12:18:50.058Z,44.30
2022-11-01T12:21:19.881Z,44.90
2022-11-01T12:23:48.001Z,45.40
2022-11-01T12:26:16.762Z,46.00
2022-11-01T12:28:46.937Z,46.50
2022-11-01T12:31:16.145Z,46.90
2022-11-01T12:33:48.616Z,47.10
2022-11-01T12:36:16.337Z,47.60
2022-11-01T12:38:44.667Z,47.90
2022-11-01T12:41:30.909Z,48.30
2022-11-01T12:44:31.999Z,47.40
2022-11-01T12:47:04.021Z,46.80
2022-11-01T12:49:34.234Z,46.10
2022-11-01T12:52:04.180Z,45.00
2022-11-01T12:54:34.549Z,44.60
2022-11-01T12:57:02.951Z,44.10
2022-11-01T12:59:35.497Z,43.40
2022-11-01T13:02:11.172Z,43.00
2022-11-01T13:04:41.686Z,42.60
2022-11-01T13:07:22.033Z,42.30
2022-11-01T13:09:55.116Z,41.90
2022-11-01T13:12:27.665Z,41.60
2022-11-01T13:15:02.465Z,42.30
2022-11-01T13:17:35.023Z,42.10
2022-11-01T13:20:06.981Z,41.90
2022-11-01T13:22:37.952Z,42.20
2022-11-01T13:25:07.430Z,42.10
2022-11-01T13:27:37.469Z,42.30
2022-11-01T13:30:10.365Z,41.90
2022-11-01T13:32:41.066Z,42.30
2022-11-01T13:35:33.341Z,41.90
2022-11-01T13:38:04.517Z,41.20
2022-11-01T13:40:34.392Z,40.90
2022-11-01T13:43:05.327Z,40.60
2022-11-01T13:45:59.328Z,40.60
2022-11-01T13:48:31.347Z,40.90
2022-11-01T13:51:06.269Z,41.00
2022-11-01T13:53:35.362Z,41.50
2022-11-01T13:56:05.551Z,41.80
2022-11-01T13:58:33.799Z,42.20
2022-11-01T14:01:31.932Z,42.40
2022-11-01T14:04:24.631Z,42.80
2022-11-01T14:07:05.308Z,42.70
2022-11-01T14:09:33.449Z,43.00
2022-11-01T14:12:12.548Z,43.20
2022-11-01T14:14:50.774Z,43.30
2022-11-01T14:18:01.915Z,43.20
2022-11-01T14:20:53.228Z,43.60
2022-11-01T14:24:02.120Z,43.80
2022-11-01T14:26:55.161Z,43.80
2022-11-01T14:29:23.034Z,44.00
2022-11-01T14:31:53.065Z,43.90
2022-11-01T14:34:30.234Z,44.10
2022-11-01T14:37:17.093Z,44.20
2022-11-01T14:39:48.182Z,44.50
2022-11-01T14:42:20.180Z,44.80
2022-11-01T14:44:50.653Z,44.90
2022-11-01T14:47:25.451Z,44.70
2022-11-01T14:49:54.282Z,44.60
2022-11-01T14:52:27.182Z,44.60
2022-11-01T14:54:57.347Z,44.60
2022-11-01T14:57:31.600Z,44.30
2022-11-01T14:59:59.714Z,44.30
2022-11-01T15:02:28.708Z,44.20
2022-11-01T15:04:58.695Z,44.30
2022-11-01T15:07:30.992Z,44.40
2022-11-01T15:10:00.276Z,44.40
2022-11-01T15:12:32.346Z,44.50
2022-11-01T15:15:00.031Z,44.70
2022-11-01T15:17:29.854Z,45.00
2022-11-01T15:19:58.496Z,44.90
2022-11-01T15:22:29.825Z,45.00
2022-11-01T15:24:58.678Z,45.20
2022-11-01T15:27:30.436Z,45.30
2022-11-01T15:29:58.300Z,45.30
2022-11-01T15:32:29.615Z,45.50
2022-11-01T15:34:58.838Z,45.70
2022-11-01T15:37:31.027Z,45.70
2022-11-01T15:42:32.569Z,46.20
2022-11-01T15:45:15.197Z,46.20
2022-11-01T15:47:43.477Z,46.40
2022-11-01T15:50:11.398Z,46.50
2022-11-01T15:52:40.492Z,46.90
2022-11-01T15:55:10.251Z,47.20
2022-11-01T15:57:39.597Z,47.10
2022-11-01T16:00:08.843Z,47.30
2022-11-01T16:02:40.624Z,47.40
2022-11-01T16:05:09.297Z,47.70
2022-11-01T16:07:37.724Z,47.50
2022-11-01T16:10:09.732Z,47.80
2022-11-01T16:12:38.491Z,48.00
2022-11-01T16:15:07.427Z,47.70
2022-11-01T16:17:36.004Z,47.70
2022-11-01T16:20:06.125Z,47.80
2022-11-01T16:22:36.635Z,48.00
2022-11-01T16:25:16.708Z,47.80
2022-11-01T16:28:00.203Z,47.90
2022-11-01T16:30:50.162Z,48.00
2022-11-01T16:33:19.889Z,47.90
2022-11-01T16:35:48.573Z,47.90
2022-11-01T16:38:29.830Z,47.80
2022-11-01T16:41:00.447Z,47.80
2022-11-01T16:43:29.228Z,47.70
2022-11-01T16:45:57.145Z,47.60
2022-11-01T16:48:25.975Z,47.30
2022-11-01T16:50:55.162Z,47.20
2022-11-01T16:53:23.358Z,47.00
2022-11-01T16:55:53.196Z,46.90
2022-11-01T16:58:27.591Z,46.90
2022-11-01T17:00:56.832Z,46.70
2022-11-01T17:03:24.957Z,46.50
2022-11-01T17:05:56.183Z,46.60
2022-11-01T17:08:25.491Z,46.50
2022-11-01T17:10:53.430Z,46.40
2022-11-01T17:13:21.322Z,46.30
2022-11-01T17:15:52.543Z,46.30
2022-11-01T17:18:25.643Z,46.20
2022-11-01T17:20:56.153Z,46.30
2022-11-01T17:23:24.384Z,46.50
2022-11-01T17:25:52.887Z,46.70
2022-11-01T17:28:21.383Z,46.80
2022-11-01T17:30:50.832Z,46.70
2022-11-01T17:33:18.550Z,46.90
2022-11-01T17:35:46.740Z,46.80
2022-11-01T17:38:15.509Z,47.00
2022-11-01T17:40:45.386Z,47.00
2022-11-01T17:43:16.590Z,47.20
2022-11-01T17:45:44.487Z,47.40
2022-11-01T17:48:13.956Z,47.40
2022-11-01T17:50:41.874Z,47.50
2022-11-01T17:53:10.960Z,47.40
2022-11-01T17:55:39.235Z,48.20
2022-11-01T17:58:07.557Z,47.60
2022-11-01T18:00:36.045Z,47.70
2022-11-01T18:03:04.382Z,47.90
2022-11-01T18:05:33.835Z,47.90
2022-11-01T18:08:02.741Z,47.80
2022-11-01T18:10:36.736Z,48.00
2022-11-01T18:13:29.476Z,48.10
2022-11-01T18:15:59.924Z,47.90
2022-11-01T18:18:38.730Z,47.90
2022-11-01T18:21:11.924Z,47.80
2022-11-01T18:23:40.616Z,48.00
2022-11-01T18:26:12.140Z,47.80
2022-11-01T18:28:40.128Z,47.70
2022-11-01T18:31:13.072Z,47.90
2022-11-01T18:33:42.474Z,47.80
2022-11-01T18:36:14.594Z,47.80
2022-11-01T18:38:44.662Z,47.80
2022-11-01T18:41:13.593Z,47.90
2022-11-01T18:43:41.633Z,47.90
2022-11-01T18:46:30.663Z,47.90
2022-11-01T18:49:01.154Z,47.90
2022-11-01T18:51:31.369Z,47.80
2022-11-01T18:54:23.791Z,47.60
2022-11-01T18:56:52.620Z,47.70
2022-11-01T18:59:27.177Z,47.60
2022-11-01T19:01:56.581Z,47.50
2022-11-01T19:04:26.155Z,47.70
2022-11-01T19:06:57.766Z,47.50
2022-11-01T19:09:28.174Z,47.70
2022-11-01T19:11:59.166Z,47.70
2022-11-01T19:14:27.726Z,47.60
2022-11-01T19:16:56.470Z,47.60
2022-11-01T19:19:24.710Z,47.60
2022-11-01T19:21:52.597Z,47.70
2022-11-01T19:24:31.722Z,47.60
2022-11-01T19:26:59.557Z,47.50
2022-11-01T19:29:30.049Z,47.60
2022-11-01T19:31:59.108Z,47.60
2022-11-01T19:34:28.194Z,47.60
2022-11-01T19:36:56.293Z,47.60
2022-11-01T19:39:24.883Z,47.40
2022-11-01T19:41:55.062Z,47.50
2022-11-01T19:44:24.155Z,47.40
2022-11-01T19:46:54.571Z,47.40
2022-11-01T19:49:24.636Z,47.40
2022-11-01T19:51:59.287Z,47.60
2022-11-01T19:54:27.989Z,47.50
2022-11-01T19:56:59.732Z,47.50
2022-11-01T19:59:27.409Z,47.40
2022-11-01T20:01:56.096Z,47.40
2022-11-01T20:04:27.976Z,47.50
2022-11-01T20:06:58.024Z,47.50
2022-11-01T20:09:27.023Z,47.60
2022-11-01T20:11:55.450Z,47.50
2022-11-01T20:14:25.030Z,47.60
2022-11-01T20:16:53.237Z,47.40
2022-11-01T20:19:21.762Z,47.50
2022-11-01T20:21:50.250Z,47.30
2022-11-01T20:24:18.225Z,47.60
2022-11-01T20:26:46.804Z,47.40
2022-11-01T20:29:14.712Z,47.40
2022-11-01T20:31:44.238Z,47.30
2022-11-01T20:34:12.189Z,47.40
2022-11-01T20:36:39.966Z,47.50
2022-11-01T20:39:10.304Z,47.40
2022-11-01T20:41:41.257Z,47.40
2022-11-01T20:44:09.067Z,47.30
2022-11-01T20:46:37.037Z,47.60
2022-11-01T20:49:06.335Z,47.60
2022-11-01T20:51:34.376Z,47.40
2022-11-01T20:54:02.645Z,47.70
2022-11-01T20:56:30.512Z,47.60
2022-11-01T20:58:58.520Z,47.50
2022-11-01T21:01:26.575Z,47.60
2022-11-01T21:03:55.539Z,47.50
2022-11-01T21:06:26.561Z,47.50
2022-11-01T21:08:54.905Z,47.60
2022-11-01T21:11:43.805Z,47.70
2022-11-01T21:14:14.090Z,47.60
2022-11-01T21:16:41.747Z,47.80
2022-11-01T21:19:14.301Z,47.60
2022-11-01T21:21:47.036Z,47.60
2022-11-01T21:24:32.361Z,47.50
2022-11-01T21:27:19.874Z,47.40
2022-11-01T21:29:48.708Z,47.70
2022-11-01T21:32:27.012Z,47.70
2022-11-01T21:34:55.255Z,47.60
2022-11-01T21:37:25.052Z,47.40
2022-11-01T21:39:55.703Z,47.40
2022-11-01T21:42:31.702Z,47.20
2022-11-01T21:44:59.821Z,47.30
2022-11-01T21:47:28.735Z,47.40
2022-11-01T21:49:56.661Z,47.30
2022-11-01T21:52:25.942Z,47.30
2022-11-01T21:54:54.269Z,47.20
2022-11-01T21:57:22.334Z,47.80
2022-11-01T21:59:52.247Z,47.20
2022-11-01T22:02:20.215Z,47.10
2022-11-01T22:04:48.029Z,47.20
2022-11-01T22:07:15.882Z,47.20
2022-11-01T22:09:44.982Z,47.10
2022-11-01T22:12:12.772Z,47.10
2022-11-01T22:14:40.611Z,47.20
2022-11-01T22:17:08.907Z,47.10
2022-11-01T22:19:36.775Z,47.10
2022-11-01T22:22:05.126Z,47.20
2022-11-01T22:24:32.952Z,47.20
2022-11-01T22:27:02.550Z,47.10
2022-11-01T22:29:30.393Z,47.00
2022-11-01T22:31:58.309Z,47.00
2022-11-01T22:34:26.210Z,47.00
2022-11-01T22:36:54.211Z,47.10
2022-11-01T22:39:23.349Z,46.90
2022-11-01T22:41:51.247Z,47.10
2022-11-01T22:44:23.972Z,46.90
2022-11-01T22:46:57.982Z,47.00
2022-11-01T22:49:27.551Z,47.10
2022-11-01T22:51:56.260Z,47.20
2022-11-01T22:54:31.176Z,47.20
2022-11-01T22:57:01.994Z,47.10
2022-11-01T22:59:33.448Z,47.00
2022-11-01T23:02:05.092Z,47.10
2022-11-01T23:04:34.224Z,47.00
2022-11-01T23:07:02.441Z,47.00
2022-11-01T23:09:30.672Z,47.10
2022-11-01T23:12:16.289Z,47.10
2022-11-01T23:14:46.775Z,47.00
2022-11-01T23:17:22.269Z,47.00
2022-11-01T23:19:52.472Z,47.10
2022-11-01T23:22:21.420Z,47.10
2022-11-01T23:24:50.586Z,47.10
2022-11-01T23:27:18.663Z,46.90
2022-11-01T23:29:49.277Z,47.00
2022-11-01T23:32:17.187Z,47.10
2022-11-01T23:34:45.981Z,47.00
2022-11-01T23:37:15.449Z,47.00
2022-11-01T23:39:43.660Z,47.00
2022-11-01T23:42:16.600Z,47.20
2022-11-01T23:44:44.424Z,47.10
2022-11-01T23:47:23.516Z,47.10
2022-11-01T23:50:03.322Z,47.10
2022-11-01T23:52:41.970Z,47.00
2022-11-01T23:55:17.577Z,47.10
2022-11-01T23:57:45.510Z,47.20
